Time;durP1;ratioP1;P1;durP2;ratioP2;P2;SDS_P1;SDS_P2;PMS_P1;PMS_P2;Temp;Humidity;BMP_temperature;BMP_pressure;BME280_temperature;BME280_humidity;BME280_pressure;Samples;Min_cycle;Max_cycle;Signal;HPM_P1;HPM_P2
2022/06/11 00:01:12;;;;;;;9.63;6.45;;;;;;;16.98;79.01;102017.31;5072145;28;20140;-67
2022/06/11 00:03:38;;;;;;;9.05;6.47;;;;;;;16.96;78.86;102019.22;5073293;28;20050;-67
2022/06/11 00:06:04;;;;;;;8.23;6.10;;;;;;;16.90;79.04;102019.75;5084177;28;20043;-68
2022/06/11 00:08:30;;;;;;;8.32;6.18;;;;;;;16.93;79.19;102019.50;5069416;28;20103;-67
2022/06/11 00:10:56;;;;;;;8.10;6.05;;;;;;;16.93;78.97;102018.69;5067471;28;20062;-67
2022/06/11 00:13:22;;;;;;;8.20;5.90;;;;;;;16.93;78.91;102014.28;5069273;28;20358;-66
2022/06/11 00:15:53;;;;;;;7.10;5.70;;;;;;;16.87;78.86;102014.81;5058058;28;20028;-67
2022/06/11 00:18:21;;;;;;;9.85;6.72;;;;;;;16.76;79.65;102016.75;5086200;28;20024;-66
2022/06/11 00:20:46;;;;;;;8.70;6.33;;;;;;;16.81;79.24;102018.00;5084514;28;20375;-67
2022/06/11 00:23:12;;;;;;;9.45;6.57;;;;;;;16.73;79.36;102012.59;5067294;28;20464;-68
2022/06/11 00:25:38;;;;;;;9.60;6.60;;;;;;;16.73;79.58;102017.81;5081092;28;20468;-67
2022/06/11 00:28:05;;;;;;;9.02;6.57;;;;;;;16.63;79.39;102007.31;5086370;28;20081;-66
2022/06/11 00:30:31;;;;;;;9.27;7.15;;;;;;;16.66;79.94;102011.44;5071006;28;20503;-68
2022/06/11 00:32:56;;;;;;;8.40;6.57;;;;;;;16.71;79.54;101998.81;5058690;28;20024;-68
2022/06/11 00:35:24;;;;;;;9.65;6.65;;;;;;;16.57;79.88;102015.69;5073575;28;20026;-68
2022/06/11 00:37:50;;;;;;;10.77;7.27;;;;;;;16.52;80.56;102011.84;5076951;28;20122;-67
2022/06/11 00:40:19;;;;;;;9.90;7.22;;;;;;;16.46;80.60;102016.66;5075830;28;20107;-67
2022/06/11 00:42:44;;;;;;;10.30;8.13;;;;;;;16.46;80.47;102008.81;5075409;28;20033;-67
2022/06/11 00:45:29;;;;;;;8.90;7.60;;;;;;;16.58;80.38;102004.28;5077731;28;20027;-68
2022/06/11 00:48:00;;;;;;;9.60;8.30;;;;;;;16.46;80.99;102000.94;5083463;28;20376;-68
2022/06/11 00:50:40;;;;;;;9.95;8.70;;;;;;;16.50;80.84;102006.72;5085521;28;20024;-67
2022/06/11 00:53:28;;;;;;;11.00;8.07;;;;;;;16.38;81.26;102003.41;5071953;28;20089;-67
2022/06/11 00:55:53;;;;;;;10.70;9.20;;;;;;;16.44;80.78;102007.25;5085326;28;20020;-67
2022/06/11 00:58:23;;;;;;;10.25;8.15;;;;;;;16.38;80.79;102010.44;5075918;28;20069;-68
2022/06/11 01:00:53;;;;;;;10.05;7.95;;;;;;;16.39;80.79;102012.91;5085148;28;20065;-67
2022/06/11 01:03:24;;;;;;;8.70;7.50;;;;;;;16.31;80.85;102011.94;5052173;28;20074;-67
2022/06/11 01:06:16;;;;;;;10.48;7.78;;;;;;;16.35;81.16;102006.28;5084718;28;20086;-67
2022/06/11 01:08:50;;;;;;;10.10;8.18;;;;;;;16.26;81.35;102004.47;5045157;28;20032;-67
2022/06/11 01:11:29;;;;;;;11.77;7.57;;;;;;;16.25;81.35;102008.06;5067532;28;20111;-67
2022/06/11 01:14:16;;;;;;;9.27;7.95;;;;;;;16.20;81.12;101994.53;5070680;28;20320;-67
2022/06/11 01:17:10;;;;;;;9.27;7.40;;;;;;;16.25;80.70;102002.00;5078987;28;20024;-67
2022/06/11 01:20:06;;;;;;;9.25;7.63;;;;;;;16.15;81.45;102007.19;5085019;28;20111;-67
2022/06/11 01:22:53;;;;;;;10.02;7.55;;;;;;;16.15;81.01;101996.72;5063311;28;20028;-67
2022/06/11 01:25:29;;;;;;;7.82;7.03;;;;;;;16.04;80.86;101999.44;5079139;28;20354;-67
2022/06/11 01:28:33;;;;;;;10.52;7.18;;;;;;;16.08;81.40;102000.84;5073695;28;20029;-67
2022/06/11 01:31:12;;;;;;;9.35;7.00;;;;;;;16.03;80.76;101998.59;5064074;28;20484;-68
2022/06/11 01:34:16;;;;;;;9.02;6.75;;;;;;;16.00;81.47;101998.03;5082644;28;20490;-67
2022/06/11 01:36:46;;;;;;;9.27;6.55;;;;;;;15.99;80.96;101991.16;5033770;28;20055;-68
2022/06/11 01:39:30;;;;;;;9.18;6.72;;;;;;;16.02;81.09;102002.19;5070900;28;20013;-67
2022/06/11 01:42:03;;;;;;;9.73;7.03;;;;;;;15.89;81.26;101997.19;5071820;28;20548;-67
2022/06/11 01:44:34;;;;;;;9.85;6.70;;;;;;;15.77;81.72;101998.22;5078008;28;20115;-67
2022/06/11 01:47:00;;;;;;;9.68;6.80;;;;;;;15.72;81.25;101995.19;5083642;28;20082;-66
2022/06/11 01:49:25;;;;;;;8.85;7.03;;;;;;;15.82;81.09;102001.25;5070222;28;20109;-67
2022/06/11 01:52:09;;;;;;;8.82;6.60;;;;;;;15.82;81.61;101992.59;5086264;28;20055;-67
2022/06/11 01:54:58;;;;;;;9.15;6.80;;;;;;;15.77;81.54;101998.22;5074089;28;20032;-67
2022/06/11 01:58:00;;;;;;;8.70;6.45;;;;;;;15.80;81.62;101991.91;5084634;28;20030;-66
2022/06/11 02:00:25;;;;;;;9.98;7.10;;;;;;;15.82;81.77;101984.75;5073009;28;20044;-67
2022/06/11 02:03:12;;;;;;;8.63;6.57;;;;;;;15.77;82.15;101998.22;5081328;28;20048;-68
2022/06/11 02:05:59;;;;;;;8.90;6.72;;;;;;;15.76;81.83;101995.72;5085924;28;20115;-67
2022/06/11 02:08:58;;;;;;;9.90;6.88;;;;;;;15.78;82.09;102002.50;5063426;28;20020;-67
2022/06/11 02:11:40;;;;;;;7.63;6.68;;;;;;;15.71;82.11;101996.09;5081516;28;20491;-67
2022/06/11 02:14:23;;;;;;;7.97;6.70;;;;;;;15.66;82.22;101995.69;5074367;28;20028;-67
2022/06/11 02:16:54;;;;;;;8.85;6.75;;;;;;;15.71;81.88;101998.72;5088002;28;20032;-67
2022/06/11 02:19:31;;;;;;;9.13;7.18;;;;;;;15.67;82.57;101997.34;5067714;28;20070;-67
2022/06/11 02:22:14;;;;;;;9.73;7.03;;;;;;;15.59;82.42;101984.88;5059200;28;20023;-67
2022/06/11 02:24:52;;;;;;;9.10;7.00;;;;;;;15.67;82.13;102007.81;5082013;28;20457;-67
2022/06/11 02:27:20;;;;;;;;;;;;;;;15.84;80.92;102004.59;5079791;28;20024;-67
2022/06/11 02:29:46;;;;;;;9.50;7.07;;;;;;;15.46;82.89;101997.31;5082813;28;19924;-67
2022/06/11 02:32:16;;;;;;;9.77;7.50;;;;;;;15.53;83.44;101995.03;5081010;28;20098;-67
2022/06/11 02:34:49;;;;;;;10.18;7.47;;;;;;;15.46;83.67;101996.50;5076654;28;20097;-67
2022/06/11 02:37:22;;;;;;;9.05;6.90;;;;;;;15.53;83.58;102006.31;5083503;28;20036;-71
2022/06/11 02:39:49;;;;;;;9.98;7.13;;;;;;;15.45;83.05;102000.06;5083684;28;20036;-67
2022/06/11 02:42:17;;;;;;;8.65;6.43;;;;;;;15.46;83.11;102009.56;5083744;28;20081;-67
2022/06/11 02:44:45;;;;;;;9.35;6.50;;;;;;;15.48;82.84;102012.88;5083135;28;20019;-67
2022/06/11 02:47:12;;;;;;;9.23;6.50;;;;;;;15.37;83.74;102012.00;5068691;28;20024;-69
2022/06/11 02:49:39;;;;;;;10.05;6.63;;;;;;;15.27;83.94;101995.41;5087980;28;20035;-67
2022/06/11 02:52:13;;;;;;;10.48;7.32;;;;;;;15.26;84.23;102006.00;5079243;28;20101;-67
2022/06/11 02:54:40;;;;;;;9.63;6.70;;;;;;;15.27;83.53;102005.88;5081560;28;20112;-68
2022/06/11 02:57:07;;;;;;;8.48;6.53;;;;;;;15.33;83.42;102015.81;5082921;28;20032;-67
2022/06/11 02:59:32;;;;;;;8.85;6.40;;;;;;;15.18;83.60;102011.84;5086105;28;20380;-67
2022/06/11 03:01:58;;;;;;;8.60;6.28;;;;;;;15.13;84.13;102029.69;5080987;28;20531;-68
2022/06/11 03:04:26;;;;;;;9.52;6.40;;;;;;;15.23;83.78;102017.53;5086580;28;20433;-67
2022/06/11 03:06:52;;;;;;;8.57;6.47;;;;;;;15.16;83.95;102026.84;5083455;28;20487;-67
2022/06/11 03:09:23;;;;;;;9.50;6.60;;;;;;;15.06;84.33;102029.38;5068515;28;20111;-67
2022/06/11 03:11:49;;;;;;;8.07;6.43;;;;;;;15.09;83.86;102036.97;5074227;28;20452;-67
2022/06/11 03:14:15;;;;;;;9.90;6.43;;;;;;;15.14;83.79;102031.38;5071745;28;20036;-69
2022/06/11 03:16:41;;;;;;;9.85;6.55;;;;;;;15.10;83.55;102030.78;5086000;28;20024;-66
2022/06/11 03:19:08;;;;;;;9.45;6.20;;;;;;;14.99;83.73;102035.22;5085123;28;20047;-67
2022/06/11 03:21:34;;;;;;;8.60;5.82;;;;;;;15.02;83.39;102042.78;5068449;28;20051;-67
2022/06/11 03:24:00;;;;;;;7.78;6.07;;;;;;;14.90;84.05;102033.34;5054224;28;20068;-67
2022/06/11 03:26:25;;;;;;;8.63;5.95;;;;;;;15.05;83.46;102037.34;5061614;28;20062;-66
2022/06/11 03:28:51;;;;;;;9.00;6.07;;;;;;;15.03;82.96;102047.09;5086626;28;20036;-66
2022/06/11 03:31:17;;;;;;;9.98;5.78;;;;;;;14.94;83.46;102042.59;5084081;28;20039;-67
2022/06/11 03:33:42;;;;;;;9.70;5.20;;;;;;;14.98;82.90;102051.84;5080710;28;20016;-67
2022/06/11 03:36:12;;;;;;;8.90;5.30;;;;;;;14.88;83.19;102039.53;5073405;28;20036;-67
2022/06/11 03:38:39;;;;;;;8.27;5.18;;;;;;;14.99;82.89;102058.72;5085956;28;20030;-67
2022/06/11 03:41:06;;;;;;;8.32;5.18;;;;;;;14.82;82.95;102053.06;5068158;28;20105;-67
2022/06/11 03:43:32;;;;;;;9.90;4.88;;;;;;;14.91;82.60;102061.13;5082584;28;20027;-67
2022/06/11 03:45:58;;;;;;;8.30;4.68;;;;;;;14.78;82.66;102069.94;5064356;28;20115;-67
2022/06/11 03:48:25;;;;;;;8.52;4.90;;;;;;;14.87;82.32;102057.94;5071255;28;20890;-66
2022/06/11 03:50:50;;;;;;;8.93;5.03;;;;;;;14.76;82.55;102058.78;5077362;28;20349;-66
2022/06/11 03:53:16;;;;;;;7.15;4.38;;;;;;;14.83;82.15;102074.78;5079401;28;20482;-67
2022/06/11 03:55:43;;;;;;;8.15;4.63;;;;;;;14.80;82.61;102080.28;5082553;28;20032;-67
2022/06/11 03:58:11;;;;;;;8.30;4.72;;;;;;;14.68;82.41;102071.63;5085507;28;20536;-67
2022/06/11 04:03:23;;;;;;;9.13;4.63;;;;;;;14.66;82.26;102083.97;5083011;28;20085;-70
2022/06/11 04:05:50;;;;;;;9.68;5.20;;;;;;;14.79;82.19;102084.66;5062999;28;20807;-67
2022/06/11 04:08:17;;;;;;;8.23;4.47;;;;;;;14.75;82.05;102096.31;5075952;28;20024;-67
2022/06/11 04:10:44;;;;;;;10.38;4.60;;;;;;;14.71;82.38;102094.88;5079774;28;20024;-67
2022/06/11 04:13:11;;;;;;;10.80;4.70;;;;;;;14.68;82.25;102102.13;5069212;28;20627;-67
2022/06/11 04:15:38;;;;;;;9.30;4.65;;;;;;;14.64;82.06;102096.31;5079834;28;20047;-67
2022/06/11 04:18:05;;;;;;;8.75;4.55;;;;;;;14.70;82.51;102101.06;5084971;28;20498;-67
2022/06/11 04:20:32;;;;;;;9.52;4.53;;;;;;;14.65;82.36;102092.75;5070498;28;20480;-67
2022/06/11 04:22:58;;;;;;;8.02;4.55;;;;;;;14.52;82.16;102092.91;5079261;28;20034;-66
2022/06/11 04:25:23;;;;;;;10.30;4.90;;;;;;;14.65;81.95;102105.81;5066125;28;20430;-67
2022/06/11 04:27:53;;;;;;;8.25;4.25;;;;;;;14.65;81.99;102092.75;5077738;28;20098;-66
2022/06/11 04:30:20;;;;;;;9.95;4.28;;;;;;;14.77;81.76;102099.63;5077853;28;20020;-66
2022/06/11 04:32:45;;;;;;;9.25;4.20;;;;;;;14.69;81.51;102099.41;5066029;28;20479;-67
2022/06/11 04:35:10;;;;;;;12.07;4.57;;;;;;;14.68;80.96;102108.19;5078429;28;20054;-67
2022/06/11 04:37:36;;;;;;;10.20;4.15;;;;;;;14.69;81.34;102104.63;5084768;28;20049;-67
2022/06/11 04:40:03;;;;;;;11.88;4.25;;;;;;;14.71;80.36;102094.88;5069766;28;20028;-69
2022/06/11 04:42:29;;;;;;;9.88;3.97;;;;;;;14.76;80.57;102115.41;5082140;28;20066;-67
2022/06/11 04:44:55;;;;;;;11.45;4.40;;;;;;;14.75;80.58;102119.81;5061968;28;20028;-68
2022/06/11 04:47:24;;;;;;;10.10;4.00;;;;;;;14.80;80.20;102122.06;5067019;28;20433;-67
2022/06/11 04:49:52;;;;;;;13.25;4.35;;;;;;;14.78;80.15;102114.34;5084924;28;20472;-66
2022/06/11 04:52:17;;;;;;;12.20;4.70;;;;;;;14.76;79.93;102121.47;5083704;28;20035;-67
2022/06/11 04:54:43;;;;;;;11.25;4.55;;;;;;;14.85;80.13;102119.91;5072943;28;20024;-68
2022/06/11 04:57:09;;;;;;;11.48;3.90;;;;;;;14.92;79.54;102125.50;5071004;28;20448;-67
2022/06/11 04:59:34;;;;;;;13.73;4.38;;;;;;;14.92;79.14;102121.09;5077954;28;20482;-68
2022/06/11 05:02:01;;;;;;;11.63;3.78;;;;;;;14.94;78.39;102118.34;5083695;28;20036;-67
2022/06/11 05:04:27;;;;;;;12.52;4.30;;;;;;;15.05;78.60;102126.16;5077708;28;20421;-66
2022/06/11 05:06:52;;;;;;;13.55;4.32;;;;;;;15.03;78.23;102133.31;5086553;28;20525;-66
2022/06/11 05:09:20;;;;;;;12.82;3.70;;;;;;;15.02;79.06;102131.63;5075908;28;20035;-67
2022/06/11 05:11:47;;;;;;;12.93;3.92;;;;;;;15.02;79.08;102129.00;5076493;28;20040;-69
2022/06/11 05:14:12;;;;;;;12.20;4.28;;;;;;;15.01;78.55;102124.75;5069222;28;20032;-67
2022/06/11 05:16:41;;;;;;;13.68;3.70;;;;;;;15.09;79.46;102130.22;5078221;28;20096;-67
2022/06/11 05:19:07;;;;;;;12.43;3.70;;;;;;;15.04;78.85;102134.97;5073143;28;20029;-67
2022/06/11 05:21:32;;;;;;;13.38;3.65;;;;;;;14.97;79.62;102139.03;5077984;28;20403;-67
2022/06/11 05:23:58;;;;;;;10.10;3.88;;;;;;;14.98;79.67;102135.47;5082389;28;20547;-66
2022/06/11 05:26:30;;;;;;;12.45;4.47;;;;;;;14.98;79.86;102141.50;5081944;28;20040;-67
2022/06/11 05:28:55;;;;;;;12.85;4.40;;;;;;;15.02;79.92;102131.63;5088213;28;20489;-67
2022/06/11 05:31:20;;;;;;;12.13;4.70;;;;;;;15.03;79.70;102117.63;5069878;28;20032;-66
2022/06/11 05:33:46;;;;;;;11.05;4.63;;;;;;;15.11;79.84;102126.50;5065654;28;20050;-67
2022/06/11 05:36:13;;;;;;;11.80;4.55;;;;;;;15.17;79.99;102140.88;5079463;28;20032;-67
2022/06/11 05:38:40;;;;;;;9.68;5.00;;;;;;;15.16;79.99;102133.16;5083175;28;20029;-67
2022/06/11 05:41:06;;;;;;;11.95;4.95;;;;;;;15.27;80.10;102135.75;5089414;28;20475;-67
2022/06/11 05:43:31;;;;;;;13.65;4.97;;;;;;;15.29;79.21;102134.66;5082974;28;20020;-67
2022/06/11 05:46:06;;;;;;;11.38;4.30;;;;;;;15.37;79.53;102141.91;5074038;28;20032;-66
2022/06/11 05:48:43;;;;;;;14.18;4.82;;;;;;;15.43;79.23;102143.19;5082646;28;20379;-67
2022/06/11 05:51:13;;;;;;;12.00;4.50;;;;;;;15.45;78.21;102133.41;5063205;28;20038;-67
2022/06/11 05:53:38;;;;;;;13.68;4.22;;;;;;;15.47;78.31;102136.72;5078751;28;20055;-66
2022/06/11 05:56:05;;;;;;;15.02;4.72;;;;;;;15.59;78.08;102146.19;5079956;28;20032;-67
2022/06/11 05:58:38;;;;;;;11.07;3.97;;;;;;;15.59;78.54;102143.56;5074445;28;20024;-67
2022/06/11 06:01:04;;;;;;;13.10;4.40;;;;;;;15.55;78.20;102140.38;5076349;28;20154;-67
2022/06/11 06:03:29;;;;;;;14.25;4.63;;;;;;;15.70;78.03;102138.31;5065455;28;20471;-67
2022/06/11 06:05:55;;;;;;;14.32;4.30;;;;;;;15.71;77.47;102145.19;5066104;28;20029;-67
2022/06/11 06:08:20;;;;;;;13.50;4.35;;;;;;;15.82;77.09;102150.38;5075981;28;20028;-67
2022/06/11 06:10:46;;;;;;;12.23;4.38;;;;;;;15.89;77.22;102143.69;5071620;28;20028;-67
2022/06/11 06:15:56;;;;;;;15.35;4.68;;;;;;;16.00;77.03;102144.56;5067457;28;20396;-67
2022/06/11 06:18:22;;;;;;;16.27;4.53;;;;;;;15.99;76.71;102153.38;5074634;28;20086;-67
2022/06/11 06:20:48;;;;;;;14.68;4.35;;;;;;;16.06;76.13;102154.56;5053725;28;20042;-68
2022/06/11 06:23:14;;;;;;;14.25;4.55;;;;;;;16.15;76.55;102148.53;5063974;28;20107;-66
2022/06/11 06:25:39;;;;;;;16.05;4.20;;;;;;;16.19;76.13;102149.94;5071659;28;20032;-67
2022/06/11 06:28:06;;;;;;;16.33;5.07;;;;;;;16.29;75.88;102150.84;5069218;28;20056;-67
2022/06/11 06:30:32;;;;;;;15.38;4.43;;;;;;;16.10;75.79;102145.47;5085692;28;20074;-66
2022/06/11 06:32:58;;;;;;;16.75;4.82;;;;;;;16.29;75.54;102166.53;5079646;28;20032;-67
2022/06/11 06:35:23;;;;;;;15.43;4.43;;;;;;;16.36;74.88;102161.59;5075814;28;20028;-67
2022/06/11 06:37:48;;;;;;;15.60;4.32;;;;;;;16.39;75.71;102156.91;5073372;28;20392;-66
2022/06/11 06:40:14;;;;;;;18.65;4.80;;;;;;;16.39;76.02;102171.81;5080134;28;20411;-67
2022/06/11 06:42:39;;;;;;;15.50;4.57;;;;;;;16.39;75.24;102167.38;5067685;28;20024;-67
2022/06/11 06:45:05;;;;;;;17.60;4.78;;;;;;;16.44;74.80;102167.00;5072063;28;20083;-66
2022/06/11 06:47:31;;;;;;;15.52;4.55;;;;;;;16.62;75.98;102172.47;5080381;28;20154;-67
2022/06/11 06:49:57;;;;;;;16.50;4.85;;;;;;;16.60;73.37;102161.28;5081600;28;20024;-66
2022/06/11 06:52:22;;;;;;;14.73;4.30;;;;;;;16.58;73.12;102163.22;5069043;28;20051;-67
2022/06/11 06:54:48;;;;;;;16.00;4.30;;;;;;;16.80;74.23;102165.66;5084191;28;20027;-69
2022/06/11 06:57:14;;;;;;;18.35;4.85;;;;;;;16.79;73.90;102168.41;5066720;28;20032;-68
2022/06/11 06:59:39;;;;;;;15.65;4.20;;;;;;;16.79;73.50;102168.41;5076202;28;20095;-67
2022/06/11 07:02:04;;;;;;;16.20;4.20;;;;;;;16.72;72.60;102153.22;5079751;28;20031;-67
2022/06/11 07:04:30;;;;;;;16.10;4.70;;;;;;;16.82;72.33;102170.78;5076531;28;20031;-68
2022/06/11 07:06:55;;;;;;;14.45;3.85;;;;;;;16.93;73.23;102171.50;5069389;28;20467;-68
2022/06/11 07:09:21;;;;;;;15.02;4.10;;;;;;;16.98;72.75;102169.31;5080421;28;20049;-67
2022/06/11 07:11:46;;;;;;;17.92;5.13;;;;;;;16.95;72.97;102169.56;5068246;28;20036;-67
2022/06/11 07:14:11;;;;;;;18.23;4.75;;;;;;;16.87;71.92;102182.53;5072353;28;20032;-67
2022/06/11 07:16:41;;;;;;;15.90;4.40;;;;;;;16.92;72.74;102185.59;5084713;28;20062;-67
2022/06/11 07:19:15;;;;;;;18.75;4.70;;;;;;;16.85;71.75;102176.56;5048374;28;20033;-67
2022/06/11 07:21:47;;;;;;;16.00;4.57;;;;;;;16.95;73.22;102174.00;5065118;28;20030;-67
2022/06/11 07:24:21;;;;;;;17.42;4.85;;;;;;;17.03;73.08;102165.44;5068577;28;20040;-67
2022/06/11 07:26:52;;;;;;;14.68;4.22;;;;;;;17.09;72.53;102162.28;5067114;28;20040;-68
2022/06/11 07:29:21;;;;;;;16.50;4.05;;;;;;;17.30;72.98;102178.75;5070204;28;20039;-67
2022/06/11 07:31:49;;;;;;;17.60;4.88;;;;;;;17.30;72.23;102163.03;5082935;22;20404;-67
2022/06/11 07:34:15;;;;;;;15.20;4.40;;;;;;;17.34;72.26;102167.03;5052019;28;20036;-66
2022/06/11 07:36:42;;;;;;;16.83;4.70;;;;;;;17.47;72.38;102153.66;5062714;28;20028;-66
2022/06/11 07:39:07;;;;;;;18.00;4.72;;;;;;;17.39;70.20;102156.97;5059810;28;20036;-66
2022/06/11 07:41:32;;;;;;;15.80;4.13;;;;;;;17.59;69.21;102175.31;5060853;28;20031;-67
2022/06/11 07:43:58;;;;;;;15.90;4.22;;;;;;;17.59;69.08;102165.66;5057070;28;20481;-67
2022/06/11 07:46:24;;;;;;;15.68;4.30;;;;;;;17.66;69.64;102158.06;5055111;28;20041;-66
2022/06/11 07:48:49;;;;;;;15.68;4.30;;;;;;;17.75;68.94;102162.50;5066214;28;20032;-67
2022/06/11 07:51:18;;;;;;;14.77;4.13;;;;;;;17.91;68.33;102168.03;5053660;28;20388;-66
2022/06/11 07:53:48;;;;;;;17.25;4.57;;;;;;;17.90;67.67;102163.75;5064162;28;20112;-67
2022/06/11 07:56:15;;;;;;;18.05;5.10;;;;;;;17.89;66.76;102159.47;5044737;28;20846;-70
2022/06/11 07:58:41;;;;;;;13.93;4.22;;;;;;;17.87;66.62;102156.13;5053739;28;20032;-67
2022/06/11 08:01:07;;;;;;;17.95;4.50;;;;;;;18.00;67.45;102172.41;5060234;28;20464;-68
2022/06/11 08:03:34;;;;;;;14.02;4.03;;;;;;;18.21;67.95;102185.38;5057248;28;20072;-67
2022/06/11 08:06:02;;;;;;;13.83;4.27;;;;;;;18.23;67.45;102182.59;5048506;28;20029;-67
2022/06/11 08:08:28;;;;;;;14.90;4.47;;;;;;;18.30;66.59;102183.72;5044318;28;20081;-67
2022/06/11 08:10:53;;;;;;;14.95;4.25;;;;;;;18.46;67.26;102183.91;5054455;28;20036;-67
2022/06/11 08:13:19;;;;;;;15.80;4.18;;;;;;;18.46;67.03;102173.41;5061213;28;20353;-68
2022/06/11 08:15:48;;;;;;;17.50;4.53;;;;;;;18.43;65.80;102178.97;5065836;28;20122;-67
2022/06/11 08:18:13;;;;;;;18.00;4.95;;;;;;;18.47;65.67;102180.34;5063875;28;20081;-68
2022/06/11 08:20:40;;;;;;;16.17;4.38;;;;;;;18.61;66.76;102183.44;5059376;28;20389;-67
2022/06/11 08:23:06;;;;;;;18.20;4.75;;;;;;;18.52;67.46;102187.75;5060150;28;20095;-66
2022/06/11 08:25:32;;;;;;;16.10;4.35;;;;;;;18.90;67.49;102192.06;5064660;28;20468;-65
2022/06/11 08:27:58;;;;;;;17.00;4.63;;;;;;;18.81;67.10;102192.97;5038130;28;20033;-68
2022/06/11 08:30:25;;;;;;;20.48;5.07;;;;;;;18.82;65.43;102189.34;5044419;28;20114;-68
2022/06/11 08:32:51;;;;;;;15.60;4.38;;;;;;;18.99;64.94;102196.47;5066066;28;20063;-66
2022/06/11 08:35:21;;;;;;;15.32;4.15;;;;;;;19.13;64.26;102202.19;5054149;28;20058;-65
2022/06/11 08:37:48;;;;;;;13.60;3.92;;;;;;;19.02;62.30;102204.03;5063575;28;20405;-67
2022/06/11 08:40:25;;;;;;;16.02;3.83;;;;;;;19.23;63.36;102192.44;5068353;28;20468;-69
2022/06/11 08:43:12;;;;;;;18.20;4.57;;;;;;;19.37;63.27;102194.53;5064595;28;20480;-70
2022/06/11 08:45:41;;;;;;;15.43;4.15;;;;;;;19.36;63.64;102204.25;5062963;28;20037;-69
2022/06/11 08:49:04;;;;;;;13.05;3.40;;;;;;;19.37;62.57;102205.06;5063389;28;21119;-68
2022/06/11 08:51:44;;;;;;;15.63;4.10;;;;;;;19.34;61.30;102198.31;4981044;28;20038;-71
2022/06/11 08:54:16;;;;;;;14.88;3.90;;;;;;;19.24;61.34;102204.59;4985148;28;20080;-68
2022/06/11 08:56:50;;;;;;;13.40;3.97;;;;;;;19.36;63.42;102208.69;4984092;28;20491;-69
2022/06/11 08:59:23;;;;;;;15.07;3.85;;;;;;;19.36;59.62;102203.41;4987467;28;20067;-69
2022/06/11 09:02:16;;;;;;;14.20;3.90;;;;;;;19.46;62.19;102204.19;4984812;28;20045;-69
2022/06/11 09:05:01;;;;;;;15.13;4.20;;;;;;;19.37;63.37;102199.81;4986367;28;20031;-69
2022/06/11 09:07:57;;;;;;;17.08;4.20;;;;;;;19.51;62.96;102204.56;4985857;28;20046;-71
2022/06/11 09:10:40;;;;;;;15.05;4.05;;;;;;;19.57;62.30;102206.59;4985778;28;20136;-69
2022/06/11 09:13:34;;;;;;;18.02;4.40;;;;;;;19.80;61.94;102198.25;4987322;28;20026;-68
2022/06/11 09:16:13;;;;;;;15.80;4.22;;;;;;;19.86;61.66;102200.28;4928805;29;20043;-69
2022/06/11 09:18:44;;;;;;;;;;;;;;;20.12;63.67;102202.94;4929812;29;20036;-70
2022/06/11 09:21:21;;;;;;;19.13;4.90;;;;;;;20.03;61.59;102209.97;4930640;28;19926;-69
2022/06/11 09:23:59;;;;;;;15.45;4.00;;;;;;;20.31;60.14;102201.94;4982807;28;20030;-71
2022/06/11 09:26:32;;;;;;;13.80;4.18;;;;;;;20.41;59.32;102199.97;4986050;28;20113;-69
2022/06/11 09:29:13;;;;;;;16.60;3.72;;;;;;;20.60;61.45;102194.53;4985234;28;20034;-69
2022/06/11 09:31:38;;;;;;;13.90;4.05;;;;;;;20.60;57.33;102199.81;4981382;28;20046;-69
2022/06/11 09:34:14;;;;;;;15.20;4.00;;;;;;;20.49;58.73;102191.34;4984521;28;20053;-69
2022/06/11 09:36:58;;;;;;;15.63;4.07;;;;;;;20.58;59.95;102206.19;4985531;28;20121;-70
2022/06/11 09:39:35;;;;;;;15.20;4.00;;;;;;;20.32;58.85;102206.22;4984668;28;20046;-69
2022/06/11 09:42:21;;;;;;;13.98;4.10;;;;;;;20.46;59.26;102203.00;4985239;28;20042;-70
2022/06/11 09:45:02;;;;;;;16.65;4.57;;;;;;;20.59;58.71;102203.44;4984857;28;20030;-68
2022/06/11 09:47:41;;;;;;;15.15;3.97;;;;;;;20.67;59.49;102211.38;4980138;28;20037;-70
2022/06/11 09:50:16;;;;;;;15.02;4.80;;;;;;;20.77;59.58;102205.16;4974995;28;20172;-69
2022/06/11 09:52:47;;;;;;;17.10;4.30;;;;;;;20.91;58.36;102212.44;5036412;28;20056;-69
2022/06/11 09:55:31;;;;;;;14.32;3.97;;;;;;;20.70;57.71;102204.94;5062867;28;20527;-69
2022/06/11 09:58:26;;;;;;;15.90;4.20;;;;;;;20.81;59.07;102206.47;5049099;28;20484;-69
2022/06/11 10:01:09;;;;;;;14.30;4.28;;;;;;;20.63;58.51;102204.75;5063501;28;20125;-69
2022/06/11 10:03:48;;;;;;;15.88;3.95;;;;;;;20.69;57.69;102219.94;5062735;28;20036;-69
2022/06/11 10:06:22;;;;;;;15.88;4.40;;;;;;;20.66;56.99;102220.25;5064603;28;20394;-69
2022/06/11 10:08:53;;;;;;;17.45;4.50;;;;;;;20.56;58.19;102209.00;5064512;28;20407;-70
2022/06/11 10:11:48;;;;;;;15.40;4.50;;;;;;;20.84;57.41;102216.72;5063079;28;20032;-68
2022/06/11 10:14:37;;;;;;;14.48;3.80;;;;;;;20.94;56.57;102214.78;5064852;28;20102;-69
2022/06/11 10:17:15;;;;;;;16.65;4.28;;;;;;;21.15;55.67;102209.88;5067375;28;20048;-67
2022/06/11 10:19:54;;;;;;;;;;;;;;;21.29;57.93;102215.53;5055129;28;20559;-68
2022/06/11 10:22:38;;;;;;;14.50;3.47;;;;;;;21.40;55.87;102207.34;5064212;28;19920;-69
2022/06/11 10:25:15;;;;;;;16.00;3.97;;;;;;;21.53;53.88;102210.31;5065660;28;20024;-70
2022/06/11 10:27:56;;;;;;;14.68;4.25;;;;;;;21.65;54.56;102214.28;5066084;28;20036;-69
2022/06/11 10:30:40;;;;;;;13.40;3.38;;;;;;;21.57;56.82;102222.22;5065272;28;20025;-69
2022/06/11 10:33:15;;;;;;;12.43;3.75;;;;;;;21.72;54.79;102212.63;5064594;28;20024;-70
2022/06/11 10:35:47;;;;;;;12.93;3.60;;;;;;;21.97;55.93;102220.59;5058831;28;20122;-70
2022/06/11 10:38:23;;;;;;;30.80;9.35;;;;;;;21.86;55.63;102226.19;5065272;28;20067;-71
2022/06/11 10:40:51;;;;;;;14.93;4.03;;;;;;;21.88;52.94;102222.38;5051895;28;20484;-69
2022/06/11 10:43:54;;;;;;;12.43;3.85;;;;;;;22.00;55.40;102215.78;5056752;28;20021;-67
2022/06/11 10:46:20;;;;;;;54.45;12.88;;;;;;;21.96;51.65;102213.63;5024783;28;20045;-69
2022/06/11 10:48:45;;;;;;;20.83;5.30;;;;;;;22.05;52.39;102215.28;5037053;28;20476;-69
2022/06/11 10:51:18;;;;;;;13.00;3.92;;;;;;;22.18;52.11;102212.97;5019205;28;20033;-70
2022/06/11 10:53:58;;;;;;;13.90;3.70;;;;;;;22.24;51.90;102217.59;5033185;28;20400;-69
2022/06/11 10:56:37;;;;;;;283.08;19.98;;;;;;;22.40;53.27;102207.97;5025827;28;20044;-69
2022/06/11 10:59:10;;;;;;;13.30;3.70;;;;;;;22.65;52.19;102208.72;5035596;28;20695;-69
2022/06/11 11:01:47;;;;;;;13.73;3.70;;;;;;;22.70;53.84;102207.22;5022091;28;20136;-69
2022/06/11 11:04:21;;;;;;;14.68;4.13;;;;;;;22.59;52.92;102204.09;5020559;28;20068;-69
2022/06/11 11:07:05;;;;;;;13.27;3.78;;;;;;;22.58;52.92;102208.56;5029710;28;20063;-69
2022/06/11 11:09:30;;;;;;;14.75;3.83;;;;;;;22.67;51.91;102207.56;5024669;28;20041;-69
2022/06/11 11:11:58;;;;;;;13.65;3.30;;;;;;;22.79;52.04;102200.06;5024788;28;20041;-69
2022/06/11 11:14:40;;;;;;;15.93;3.80;;;;;;;22.90;52.72;102201.56;5024200;28;20029;-70
2022/06/11 11:17:23;;;;;;;13.98;3.75;;;;;;;22.84;53.12;102204.84;5026006;28;20518;-69
2022/06/11 11:22:52;;;;;;;14.30;3.75;;;;;;;22.86;51.75;102205.50;5060553;28;20062;-69
2022/06/11 11:25:26;;;;;;;14.50;3.65;;;;;;;22.86;50.42;102205.50;5060611;28;20295;-69
2022/06/11 11:27:52;;;;;;;14.40;4.05;;;;;;;22.91;51.64;102204.00;5060808;28;20024;-70
2022/06/11 11:30:17;;;;;;;15.93;3.90;;;;;;;23.06;51.39;102206.75;5061631;28;20533;-69
2022/06/11 11:32:45;;;;;;;14.10;4.07;;;;;;;23.09;52.80;102203.75;5060997;28;20020;-70
2022/06/11 11:35:14;;;;;;;;;;;;;;;23.44;53.29;102201.53;5063096;28;20029;-69
2022/06/11 11:37:39;;;;;;;14.77;4.10;;;;;;;23.50;49.27;102192.88;5065215;28;20008;-70
2022/06/11 11:40:24;;;;;;;12.95;3.63;;;;;;;23.67;51.20;102183.03;5064112;28;20119;-70
2022/06/11 11:42:54;;;;;;;13.88;3.83;;;;;;;23.74;49.79;102190.09;5065259;28;20043;-69
2022/06/11 11:45:22;;;;;;;13.52;3.88;;;;;;;23.84;51.51;102190.66;5060538;28;20524;-69
2022/06/11 11:47:50;;;;;;;14.18;3.95;;;;;;;23.87;49.95;102178.06;5061295;28;20064;-69
2022/06/11 11:50:28;;;;;;;13.23;3.83;;;;;;;23.82;50.66;102190.00;5063281;28;20107;-69